sensor_id;sensor_type;location;lat;lon;timestamp;temperature;humidity
16513;DHT22;8369;48.030;11.598;2022-09-12T00:00:03;11.70;99.90
16513;DHT22;8369;48.030;11.598;2022-09-12T00:02:29;11.70;99.90
16513;DHT22;8369;48.030;11.598;2022-09-12T00:04:54;11.60;99.90
16513;DHT22;8369;48.030;11.598;2022-09-12T00:07:20;11.60;99.90
16513;DHT22;8369;48.030;11.598;2022-09-12T00:09:46;11.60;99.90
16513;DHT22;8369;48.030;11.598;2022-09-12T00:12:12;11.60;99.90
16513;DHT22;8369;48.030;11.598;2022-09-12T00:14:38;11.50;99.90
16513;DHT22;8369;48.030;11.598;2022-09-12T00:17:03;11.50;99.90
16513;DHT22;8369;48.030;11.598;2022-09-12T00:19:32;11.50;99.90
16513;DHT22;8369;48.030;11.598;2022-09-12T00:21:58;11.50;99.90
16513;DHT22;8369;48.030;11.598;2022-09-12T00:24:24;11.50;99.90
16513;DHT22;8369;48.030;11.598;2022-09-12T00:26:49;11.50;99.90
16513;DHT22;8369;48.030;11.598;2022-09-12T00:29:17;11.50;99.90
16513;DHT22;8369;48.030;11.598;2022-09-12T00:31:43;11.50;99.90
16513;DHT22;8369;48.030;11.598;2022-09-12T00:34:09;11.40;99.90
16513;DHT22;8369;48.030;11.598;2022-09-12T00:36:35;11.40;99.90
16513;DHT22;8369;48.030;11.598;2022-09-12T00:39:02;11.40;99.90
16513;DHT22;8369;48.030;11.598;2022-09-12T00:41:31;11.30;99.90
16513;DHT22;8369;48.030;11.598;2022-09-12T00:46:43;11.30;99.90
16513;DHT22;8369;48.030;11.598;2022-09-12T00:49:26;11.30;99.90
16513;DHT22;8369;48.030;11.598;2022-09-12T00:52:10;11.30;99.90
16513;DHT22;8369;48.030;11.598;2022-09-12T00:54:48;11.30;99.90
16513;DHT22;8369;48.030;11.598;2022-09-12T00:57:15;11.30;99.90
16513;DHT22;8369;48.030;11.598;2022-09-12T00:59:52;11.20;99.90
16513;DHT22;8369;48.030;11.598;2022-09-12T01:02:18;11.20;99.90
16513;DHT22;8369;48.030;11.598;2022-09-12T01:04:48;11.20;99.90
16513;DHT22;8369;48.030;11.598;2022-09-12T01:07:14;11.10;99.90
16513;DHT22;8369;48.030;11.598;2022-09-12T01:09:41;11.10;99.90
16513;DHT22;8369;48.030;11.598;2022-09-12T01:12:08;11.10;99.90
16513;DHT22;8369;48.030;11.598;2022-09-12T01:14:34;11.10;99.90
16513;DHT22;8369;48.030;11.598;2022-09-12T01:17:00;11.10;99.90
16513;DHT22;8369;48.030;11.598;2022-09-12T01:20:04;11.10;99.90
16513;DHT22;8369;48.030;11.598;2022-09-12T01:25:31;11.00;99.90
16513;DHT22;8369;48.030;11.598;2022-09-12T01:28:11;11.00;99.90
16513;DHT22;8369;48.030;11.598;2022-09-12T01:30:47;11.00;99.90
16513;DHT22;8369;48.030;11.598;2022-09-12T01:36:01;10.90;99.90
16513;DHT22;8369;48.030;11.598;2022-09-12T01:38:43;10.90;99.90
16513;DHT22;8369;48.030;11.598;2022-09-12T01:46:54;10.90;99.90
16513;DHT22;8369;48.030;11.598;2022-09-12T01:49:44;10.80;99.90
16513;DHT22;8369;48.030;11.598;2022-09-12T01:52:17;10.80;99.90
16513;DHT22;8369;48.030;11.598;2022-09-12T01:57:31;10.70;99.90
16513;DHT22;8369;48.030;11.598;2022-09-12T02:00:03;10.70;99.90
16513;DHT22;8369;48.030;11.598;2022-09-12T02:02:34;10.70;99.90
16513;DHT22;8369;48.030;11.598;2022-09-12T02:05:09;10.70;99.90
16513;DHT22;8369;48.030;11.598;2022-09-12T02:07:48;10.70;99.90
16513;DHT22;8369;48.030;11.598;2022-09-12T02:10:24;10.60;99.90
16513;DHT22;8369;48.030;11.598;2022-09-12T02:13:14;10.60;99.90
16513;DHT22;8369;48.030;11.598;2022-09-12T02:15:48;10.60;99.90
16513;DHT22;8369;48.030;11.598;2022-09-12T02:18:17;10.60;99.90
16513;DHT22;8369;48.030;11.598;2022-09-12T02:20:46;10.60;99.90
16513;DHT22;8369;48.030;11.598;2022-09-12T02:23:16;10.50;99.90
16513;DHT22;8369;48.030;11.598;2022-09-12T02:25:47;10.50;99.90
16513;DHT22;8369;48.030;11.598;2022-09-12T02:28:19;10.50;99.90
16513;DHT22;8369;48.030;11.598;2022-09-12T02:33:29;10.50;99.90
16513;DHT22;8369;48.030;11.598;2022-09-12T02:36:05;10.50;99.90
16513;DHT22;8369;48.030;11.598;2022-09-12T02:38:40;10.40;99.90
16513;DHT22;8369;48.030;11.598;2022-09-12T02:41:23;10.40;99.90
16513;DHT22;8369;48.030;11.598;2022-09-12T02:43:50;10.40;99.90
16513;DHT22;8369;48.030;11.598;2022-09-12T02:46:21;10.30;99.90
16513;DHT22;8369;48.030;11.598;2022-09-12T02:48:48;10.30;99.90
16513;DHT22;8369;48.030;11.598;2022-09-12T02:51:17;10.30;99.90
16513;DHT22;8369;48.030;11.598;2022-09-12T02:53:43;10.30;99.90
16513;DHT22;8369;48.030;11.598;2022-09-12T02:56:16;10.30;99.90
16513;DHT22;8369;48.030;11.598;2022-09-12T02:58:42;10.30;99.90
16513;DHT22;8369;48.030;11.598;2022-09-12T03:01:29;10.30;99.90
16513;DHT22;8369;48.030;11.598;2022-09-12T03:21:03;10.10;99.90
16513;DHT22;8369;48.030;11.598;2022-09-12T03:29:09;10.10;99.90
16513;DHT22;8369;48.030;11.598;2022-09-12T03:31:36;10.10;99.90
16513;DHT22;8369;48.030;11.598;2022-09-12T03:34:03;10.00;99.90
16513;DHT22;8369;48.030;11.598;2022-09-12T03:36:30;10.00;99.90
16513;DHT22;8369;48.030;11.598;2022-09-12T03:38:56;10.00;99.90
16513;DHT22;8369;48.030;11.598;2022-09-12T03:41:21;10.00;99.90
16513;DHT22;8369;48.030;11.598;2022-09-12T03:43:47;10.00;99.90
16513;DHT22;8369;48.030;11.598;2022-09-12T03:46:13;10.00;99.90
16513;DHT22;8369;48.030;11.598;2022-09-12T03:48:40;10.00;99.90
16513;DHT22;8369;48.030;11.598;2022-09-12T03:51:08;9.90;99.90
16513;DHT22;8369;48.030;11.598;2022-09-12T03:53:34;9.90;99.90
16513;DHT22;8369;48.030;11.598;2022-09-12T03:56:06;9.90;99.90
16513;DHT22;8369;48.030;11.598;2022-09-12T03:58:32;9.90;99.90
16513;DHT22;8369;48.030;11.598;2022-09-12T04:01:00;9.90;99.90
16513;DHT22;8369;48.030;11.598;2022-09-12T04:03:30;9.80;99.90
16513;DHT22;8369;48.030;11.598;2022-09-12T04:05:56;9.80;99.90
16513;DHT22;8369;48.030;11.598;2022-09-12T04:08:22;9.80;99.90
16513;DHT22;8369;48.030;11.598;2022-09-12T04:10:48;9.80;99.90
16513;DHT22;8369;48.030;11.598;2022-09-12T04:13:16;9.80;99.90
16513;DHT22;8369;48.030;11.598;2022-09-12T04:15:42;9.70;99.90
16513;DHT22;8369;48.030;11.598;2022-09-12T04:18:08;9.70;99.90
16513;DHT22;8369;48.030;11.598;2022-09-12T04:20:35;9.70;99.90
16513;DHT22;8369;48.030;11.598;2022-09-12T04:23:01;9.70;99.90
16513;DHT22;8369;48.030;11.598;2022-09-12T04:25:27;9.70;99.90
16513;DHT22;8369;48.030;11.598;2022-09-12T04:27:54;9.70;99.90
16513;DHT22;8369;48.030;11.598;2022-09-12T04:30:19;9.70;99.90
16513;DHT22;8369;48.030;11.598;2022-09-12T04:32:45;9.70;99.90
16513;DHT22;8369;48.030;11.598;2022-09-12T04:35:11;9.70;99.90
16513;DHT22;8369;48.030;11.598;2022-09-12T04:37:39;9.60;99.90
16513;DHT22;8369;48.030;11.598;2022-09-12T04:40:05;9.60;99.90
16513;DHT22;8369;48.030;11.598;2022-09-12T04:42:31;9.60;99.90
16513;DHT22;8369;48.030;11.598;2022-09-12T04:44:57;9.60;99.90
16513;DHT22;8369;48.030;11.598;2022-09-12T04:47:23;9.60;99.90
16513;DHT22;8369;48.030;11.598;2022-09-12T04:49:48;9.60;99.90
16513;DHT22;8369;48.030;11.598;2022-09-12T04:52:15;9.60;99.90
16513;DHT22;8369;48.030;11.598;2022-09-12T04:54:41;9.60;99.90
16513;DHT22;8369;48.030;11.598;2022-09-12T04:57:09;9.70;99.90
16513;DHT22;8369;48.030;11.598;2022-09-12T04:59:36;9.60;99.90
16513;DHT22;8369;48.030;11.598;2022-09-12T05:02:02;9.60;99.90
16513;DHT22;8369;48.030;11.598;2022-09-12T05:04:28;9.60;99.90
16513;DHT22;8369;48.030;11.598;2022-09-12T05:06:56;9.60;99.90
16513;DHT22;8369;48.030;11.598;2022-09-12T05:09:21;9.50;99.90
16513;DHT22;8369;48.030;11.598;2022-09-12T05:11:47;9.50;99.90
16513;DHT22;8369;48.030;11.598;2022-09-12T05:14:13;9.50;99.90
16513;DHT22;8369;48.030;11.598;2022-09-12T05:16:39;9.50;99.90
16513;DHT22;8369;48.030;11.598;2022-09-12T05:19:05;9.50;99.90
16513;DHT22;8369;48.030;11.598;2022-09-12T05:21:31;9.60;99.90
16513;DHT22;8369;48.030;11.598;2022-09-12T05:23:57;9.60;99.90
16513;DHT22;8369;48.030;11.598;2022-09-12T05:26:26;9.70;99.90
16513;DHT22;8369;48.030;11.598;2022-09-12T05:28:53;9.70;99.90
16513;DHT22;8369;48.030;11.598;2022-09-12T05:31:23;9.70;99.90
16513;DHT22;8369;48.030;11.598;2022-09-12T05:33:51;9.70;99.90
16513;DHT22;8369;48.030;11.598;2022-09-12T05:36:19;9.70;99.90
16513;DHT22;8369;48.030;11.598;2022-09-12T05:38:46;9.70;99.90
16513;DHT22;8369;48.030;11.598;2022-09-12T05:41:17;9.70;99.90
16513;DHT22;8369;48.030;11.598;2022-09-12T05:43:44;9.80;99.90
16513;DHT22;8369;48.030;11.598;2022-09-12T05:46:12;9.80;99.90
16513;DHT22;8369;48.030;11.598;2022-09-12T05:48:40;9.80;99.90
16513;DHT22;8369;48.030;11.598;2022-09-12T05:51:09;9.90;99.90
16513;DHT22;8369;48.030;11.598;2022-09-12T05:53:36;9.90;99.90
16513;DHT22;8369;48.030;11.598;2022-09-12T05:56:10;10.00;99.90
16513;DHT22;8369;48.030;11.598;2022-09-12T05:58:42;10.10;99.90
16513;DHT22;8369;48.030;11.598;2022-09-12T06:01:11;10.20;99.90
16513;DHT22;8369;48.030;11.598;2022-09-12T06:03:48;10.30;99.90
16513;DHT22;8369;48.030;11.598;2022-09-12T06:06:16;10.40;99.90
16513;DHT22;8369;48.030;11.598;2022-09-12T06:08:45;10.50;99.90
16513;DHT22;8369;48.030;11.598;2022-09-12T06:11:14;10.60;99.90
16513;DHT22;8369;48.030;11.598;2022-09-12T06:13:41;10.60;99.90
16513;DHT22;8369;48.030;11.598;2022-09-12T06:16:13;10.70;99.90
16513;DHT22;8369;48.030;11.598;2022-09-12T06:18:39;10.80;99.90
16513;DHT22;8369;48.030;11.598;2022-09-12T06:21:10;10.90;99.90
16513;DHT22;8369;48.030;11.598;2022-09-12T06:23:36;11.00;99.90
16513;DHT22;8369;48.030;11.598;2022-09-12T06:26:03;11.10;99.90
16513;DHT22;8369;48.030;11.598;2022-09-12T06:28:30;11.20;99.90
16513;DHT22;8369;48.030;11.598;2022-09-12T06:31:04;11.30;99.90
16513;DHT22;8369;48.030;11.598;2022-09-12T06:33:32;11.40;99.90
16513;DHT22;8369;48.030;11.598;2022-09-12T06:36:13;11.50;99.90
16513;DHT22;8369;48.030;11.598;2022-09-12T06:38:41;11.70;99.90
16513;DHT22;8369;48.030;11.598;2022-09-12T06:41:08;11.80;99.90
16513;DHT22;8369;48.030;11.598;2022-09-12T06:43:36;12.00;99.90
16513;DHT22;8369;48.030;11.598;2022-09-12T06:46:03;12.10;99.90
16513;DHT22;8369;48.030;11.598;2022-09-12T06:48:29;12.30;99.90
16513;DHT22;8369;48.030;11.598;2022-09-12T06:51:00;12.40;99.90
16513;DHT22;8369;48.030;11.598;2022-09-12T06:53:27;12.60;99.90
16513;DHT22;8369;48.030;11.598;2022-09-12T06:55:58;12.70;99.90
16513;DHT22;8369;48.030;11.598;2022-09-12T06:58:29;12.80;99.90
16513;DHT22;8369;48.030;11.598;2022-09-12T07:03:31;13.10;99.90
16513;DHT22;8369;48.030;11.598;2022-09-12T07:06:06;13.20;99.90
16513;DHT22;8369;48.030;11.598;2022-09-12T07:08:33;13.40;99.90
16513;DHT22;8369;48.030;11.598;2022-09-12T07:11:13;13.50;99.90
16513;DHT22;8369;48.030;11.598;2022-09-12T07:13:40;13.60;99.90
16513;DHT22;8369;48.030;11.598;2022-09-12T07:16:08;13.70;99.90
16513;DHT22;8369;48.030;11.598;2022-09-12T07:18:36;13.80;99.90
16513;DHT22;8369;48.030;11.598;2022-09-12T07:21:07;13.90;99.90
16513;DHT22;8369;48.030;11.598;2022-09-12T07:23:34;14.10;99.90
16513;DHT22;8369;48.030;11.598;2022-09-12T07:26:01;14.10;99.90
16513;DHT22;8369;48.030;11.598;2022-09-12T07:28:29;14.30;99.90
16513;DHT22;8369;48.030;11.598;2022-09-12T07:30:56;14.40;99.90
16513;DHT22;8369;48.030;11.598;2022-09-12T07:33:24;14.50;99.90
16513;DHT22;8369;48.030;11.598;2022-09-12T07:35:51;14.60;99.90
16513;DHT22;8369;48.030;11.598;2022-09-12T07:38:20;14.70;99.90
16513;DHT22;8369;48.030;11.598;2022-09-12T07:40:45;14.90;99.90
16513;DHT22;8369;48.030;11.598;2022-09-12T07:43:11;15.00;99.90
16513;DHT22;8369;48.030;11.598;2022-09-12T07:45:38;15.10;99.90
16513;DHT22;8369;48.030;11.598;2022-09-12T07:48:07;15.20;99.90
16513;DHT22;8369;48.030;11.598;2022-09-12T07:50:34;15.30;99.90
16513;DHT22;8369;48.030;11.598;2022-09-12T07:53:02;15.40;99.90
16513;DHT22;8369;48.030;11.598;2022-09-12T07:55:31;15.50;99.90
16513;DHT22;8369;48.030;11.598;2022-09-12T07:57:58;15.60;99.90
16513;DHT22;8369;48.030;11.598;2022-09-12T08:00:26;15.70;99.90
16513;DHT22;8369;48.030;11.598;2022-09-12T08:03:00;15.80;99.90
16513;DHT22;8369;48.030;11.598;2022-09-12T08:05:27;15.90;99.90
16513;DHT22;8369;48.030;11.598;2022-09-12T08:07:54;15.90;99.90
16513;DHT22;8369;48.030;11.598;2022-09-12T08:10:23;16.00;99.90
16513;DHT22;8369;48.030;11.598;2022-09-12T08:12:49;16.10;99.90
16513;DHT22;8369;48.030;11.598;2022-09-12T08:15:15;16.20;99.90
16513;DHT22;8369;48.030;11.598;2022-09-12T08:17:41;16.30;99.90
16513;DHT22;8369;48.030;11.598;2022-09-12T08:20:08;16.40;99.90
16513;DHT22;8369;48.030;11.598;2022-09-12T08:22:34;16.50;99.90
16513;DHT22;8369;48.030;11.598;2022-09-12T08:25:00;16.50;99.90
16513;DHT22;8369;48.030;11.598;2022-09-12T08:27:26;16.60;99.90
16513;DHT22;8369;48.030;11.598;2022-09-12T08:29:52;16.70;99.90
16513;DHT22;8369;48.030;11.598;2022-09-12T08:32:20;16.80;99.90
16513;DHT22;8369;48.030;11.598;2022-09-12T08:34:45;16.80;99.90
16513;DHT22;8369;48.030;11.598;2022-09-12T08:37:11;16.90;99.90
16513;DHT22;8369;48.030;11.598;2022-09-12T08:39:37;16.90;99.90
16513;DHT22;8369;48.030;11.598;2022-09-12T08:42:04;17.00;99.90
16513;DHT22;8369;48.030;11.598;2022-09-12T08:47:26;17.20;99.90
16513;DHT22;8369;48.030;11.598;2022-09-12T08:50:13;17.30;99.90
16513;DHT22;8369;48.030;11.598;2022-09-12T08:53:02;17.30;99.90
16513;DHT22;8369;48.030;11.598;2022-09-12T08:58:15;17.60;99.90
16513;DHT22;8369;48.030;11.598;2022-09-12T09:09:30;17.80;99.90
16513;DHT22;8369;48.030;11.598;2022-09-12T09:17:42;18.00;99.90
16513;DHT22;8369;48.030;11.598;2022-09-12T09:20:24;18.10;99.90
16513;DHT22;8369;48.030;11.598;2022-09-12T09:23:33;18.10;99.80
16513;DHT22;8369;48.030;11.598;2022-09-12T09:26:05;18.20;99.90
16513;DHT22;8369;48.030;11.598;2022-09-12T09:31:21;18.40;98.00
16513;DHT22;8369;48.030;11.598;2022-09-12T09:33:49;18.40;99.00
16513;DHT22;8369;48.030;11.598;2022-09-12T09:39:11;18.50;98.40
16513;DHT22;8369;48.030;11.598;2022-09-12T09:42:09;18.60;98.40
16513;DHT22;8369;48.030;11.598;2022-09-12T09:44:37;18.70;97.30
16513;DHT22;8369;48.030;11.598;2022-09-12T09:47:03;18.70;94.80
16513;DHT22;8369;48.030;11.598;2022-09-12T09:49:32;18.70;97.30
16513;DHT22;8369;48.030;11.598;2022-09-12T09:52:02;18.80;97.50
16513;DHT22;8369;48.030;11.598;2022-09-12T09:54:40;18.90;97.50
16513;DHT22;8369;48.030;11.598;2022-09-12T10:00:26;19.10;95.80
16513;DHT22;8369;48.030;11.598;2022-09-12T10:05:43;19.20;95.10
16513;DHT22;8369;48.030;11.598;2022-09-12T10:08:23;19.20;95.30
16513;DHT22;8369;48.030;11.598;2022-09-12T10:13:36;19.30;94.90
16513;DHT22;8369;48.030;11.598;2022-09-12T10:16:06;19.40;94.60
16513;DHT22;8369;48.030;11.598;2022-09-12T10:18:35;19.40;93.30
16513;DHT22;8369;48.030;11.598;2022-09-12T10:21:01;19.40;94.60
16513;DHT22;8369;48.030;11.598;2022-09-12T10:23:36;19.40;93.90
16513;DHT22;8369;48.030;11.598;2022-09-12T10:26:13;19.40;93.10
16513;DHT22;8369;48.030;11.598;2022-09-12T10:28:51;19.50;93.70
16513;DHT22;8369;48.030;11.598;2022-09-12T10:31:34;19.60;94.60
16513;DHT22;8369;48.030;11.598;2022-09-12T10:34:03;19.60;95.30
16513;DHT22;8369;48.030;11.598;2022-09-12T10:36:37;19.70;91.70
16513;DHT22;8369;48.030;11.598;2022-09-12T10:39:05;19.70;94.00
16513;DHT22;8369;48.030;11.598;2022-09-12T10:41:37;19.80;95.00
16513;DHT22;8369;48.030;11.598;2022-09-12T10:44:10;19.90;95.60
16513;DHT22;8369;48.030;11.598;2022-09-12T10:46:39;19.90;95.60
16513;DHT22;8369;48.030;11.598;2022-09-12T10:49:27;20.00;94.90
16513;DHT22;8369;48.030;11.598;2022-09-12T10:51:54;20.00;92.30
16513;DHT22;8369;48.030;11.598;2022-09-12T10:54:23;20.10;94.10
16513;DHT22;8369;48.030;11.598;2022-09-12T11:07:46;20.20;93.20
16513;DHT22;8369;48.030;11.598;2022-09-12T11:16:43;20.30;92.70
16513;DHT22;8369;48.030;11.598;2022-09-12T11:27:18;20.40;91.80
16513;DHT22;8369;48.030;11.598;2022-09-12T11:30:07;20.50;92.10
16513;DHT22;8369;48.030;11.598;2022-09-12T11:35:28;20.60;90.40
16513;DHT22;8369;48.030;11.598;2022-09-12T11:40:53;20.70;90.30
16513;DHT22;8369;48.030;11.598;2022-09-12T11:46:33;20.70;90.40
16513;DHT22;8369;48.030;11.598;2022-09-12T11:49:25;20.70;88.60
16513;DHT22;8369;48.030;11.598;2022-09-12T11:52:03;20.80;85.70
16513;DHT22;8369;48.030;11.598;2022-09-12T11:57:43;20.70;87.90
16513;DHT22;8369;48.030;11.598;2022-09-12T12:00:23;20.80;88.20
16513;DHT22;8369;48.030;11.598;2022-09-12T12:06:01;20.80;86.20
16513;DHT22;8369;48.030;11.598;2022-09-12T12:08:31;20.80;85.00
16513;DHT22;8369;48.030;11.598;2022-09-12T12:10:59;20.90;86.00
16513;DHT22;8369;48.030;11.598;2022-09-12T12:13:45;20.90;85.30
16513;DHT22;8369;48.030;11.598;2022-09-12T12:18:56;20.90;83.30
16513;DHT22;8369;48.030;11.598;2022-09-12T12:21:31;21.00;84.50
16513;DHT22;8369;48.030;11.598;2022-09-12T12:29:41;21.10;84.20
16513;DHT22;8369;48.030;11.598;2022-09-12T12:34:36;21.20;85.00
16513;DHT22;8369;48.030;11.598;2022-09-12T12:44:59;21.40;81.60
16513;DHT22;8369;48.030;11.598;2022-09-12T12:47:33;21.40;83.40
16513;DHT22;8369;48.030;11.598;2022-09-12T12:52:45;21.50;84.10
16513;DHT22;8369;48.030;11.598;2022-09-12T12:58:06;21.50;83.00
16513;DHT22;8369;48.030;11.598;2022-09-12T13:00:45;21.50;84.50
16513;DHT22;8369;48.030;11.598;2022-09-12T13:03:29;21.50;82.10
16513;DHT22;8369;48.030;11.598;2022-09-12T13:06:00;21.50;83.90
16513;DHT22;8369;48.030;11.598;2022-09-12T13:08:31;21.50;82.40
16513;DHT22;8369;48.030;11.598;2022-09-12T13:11:16;21.50;82.70
16513;DHT22;8369;48.030;11.598;2022-09-12T13:14:06;21.50;83.10
16513;DHT22;8369;48.030;11.598;2022-09-12T13:16:58;21.50;80.80
16513;DHT22;8369;48.030;11.598;2022-09-12T13:19:30;21.50;81.60
16513;DHT22;8369;48.030;11.598;2022-09-12T13:22:08;21.50;81.00
16513;DHT22;8369;48.030;11.598;2022-09-12T13:24:45;21.60;81.40
16513;DHT22;8369;48.030;11.598;2022-09-12T13:27:18;21.60;80.80
16513;DHT22;8369;48.030;11.598;2022-09-12T13:29:44;21.60;80.50
16513;DHT22;8369;48.030;11.598;2022-09-12T13:32:11;21.60;82.80
16513;DHT22;8369;48.030;11.598;2022-09-12T13:34:50;21.70;83.00
16513;DHT22;8369;48.030;11.598;2022-09-12T13:40:29;21.70;82.80
16513;DHT22;8369;48.030;11.598;2022-09-12T13:43:16;21.70;81.30
16513;DHT22;8369;48.030;11.598;2022-09-12T13:45:44;21.70;81.50
16513;DHT22;8369;48.030;11.598;2022-09-12T13:48:19;21.70;81.10
16513;DHT22;8369;48.030;11.598;2022-09-12T13:50:59;21.70;81.60
16513;DHT22;8369;48.030;11.598;2022-09-12T13:53:29;21.80;82.10
16513;DHT22;8369;48.030;11.598;2022-09-12T13:55:58;21.80;83.10
16513;DHT22;8369;48.030;11.598;2022-09-12T13:58:27;21.80;84.10
16513;DHT22;8369;48.030;11.598;2022-09-12T14:01:13;21.90;82.70
16513;DHT22;8369;48.030;11.598;2022-09-12T14:03:52;21.90;83.70
16513;DHT22;8369;48.030;11.598;2022-09-12T14:06:44;21.90;79.90
16513;DHT22;8369;48.030;11.598;2022-09-12T14:09:34;21.90;82.10
16513;DHT22;8369;48.030;11.598;2022-09-12T14:12:03;21.90;82.70
16513;DHT22;8369;48.030;11.598;2022-09-12T14:14:35;21.90;81.60
16513;DHT22;8369;48.030;11.598;2022-09-12T14:19:59;21.80;79.30
16513;DHT22;8369;48.030;11.598;2022-09-12T14:22:29;21.80;79.40
16513;DHT22;8369;48.030;11.598;2022-09-12T14:24:55;21.80;78.20
16513;DHT22;8369;48.030;11.598;2022-09-12T14:27:26;21.70;77.90
16513;DHT22;8369;48.030;11.598;2022-09-12T14:30:18;21.60;78.80
16513;DHT22;8369;48.030;11.598;2022-09-12T14:33:02;21.60;79.10
16513;DHT22;8369;48.030;11.598;2022-09-12T14:35:28;21.50;80.30
16513;DHT22;8369;48.030;11.598;2022-09-12T14:37:55;21.50;81.40
16513;DHT22;8369;48.030;11.598;2022-09-12T14:40:22;21.40;81.10
16513;DHT22;8369;48.030;11.598;2022-09-12T14:42:50;21.40;80.80
16513;DHT22;8369;48.030;11.598;2022-09-12T14:45:29;21.40;81.80
16513;DHT22;8369;48.030;11.598;2022-09-12T14:47:57;21.30;83.00
16513;DHT22;8369;48.030;11.598;2022-09-12T14:50:26;21.30;82.80
16513;DHT22;8369;48.030;11.598;2022-09-12T14:55:45;21.30;84.10
16513;DHT22;8369;48.030;11.598;2022-09-12T14:58:25;21.30;84.20
16513;DHT22;8369;48.030;11.598;2022-09-12T15:00:57;21.20;84.40
16513;DHT22;8369;48.030;11.598;2022-09-12T15:03:26;21.20;81.90
16513;DHT22;8369;48.030;11.598;2022-09-12T15:05:52;21.20;83.30
16513;DHT22;8369;48.030;11.598;2022-09-12T15:08:18;21.20;81.50
16513;DHT22;8369;48.030;11.598;2022-09-12T15:10:44;21.20;82.70
16513;DHT22;8369;48.030;11.598;2022-09-12T15:13:11;21.20;82.70
16513;DHT22;8369;48.030;11.598;2022-09-12T15:15:40;21.20;82.80
16513;DHT22;8369;48.030;11.598;2022-09-12T15:18:07;21.20;83.00
16513;DHT22;8369;48.030;11.598;2022-09-12T15:20:38;21.20;83.30
16513;DHT22;8369;48.030;11.598;2022-09-12T15:23:09;21.20;83.60
16513;DHT22;8369;48.030;11.598;2022-09-12T15:25:37;21.20;83.00
16513;DHT22;8369;48.030;11.598;2022-09-12T15:28:18;21.20;83.40
16513;DHT22;8369;48.030;11.598;2022-09-12T15:30:46;21.20;83.30
16513;DHT22;8369;48.030;11.598;2022-09-12T15:33:16;21.20;83.40
16513;DHT22;8369;48.030;11.598;2022-09-12T15:35:43;21.30;84.10
16513;DHT22;8369;48.030;11.598;2022-09-12T15:38:10;21.30;83.00
16513;DHT22;8369;48.030;11.598;2022-09-12T15:40:36;21.30;83.40
16513;DHT22;8369;48.030;11.598;2022-09-12T15:43:04;21.30;83.70
16513;DHT22;8369;48.030;11.598;2022-09-12T15:45:32;21.30;82.70
16513;DHT22;8369;48.030;11.598;2022-09-12T15:47:59;21.20;82.50
16513;DHT22;8369;48.030;11.598;2022-09-12T15:50:28;21.20;83.10
16513;DHT22;8369;48.030;11.598;2022-09-12T15:52:55;21.10;81.60
16513;DHT22;8369;48.030;11.598;2022-09-12T15:55:27;21.10;82.70
16513;DHT22;8369;48.030;11.598;2022-09-12T15:57:53;21.10;83.40
16513;DHT22;8369;48.030;11.598;2022-09-12T16:00:20;21.10;84.20
16513;DHT22;8369;48.030;11.598;2022-09-12T16:02:49;21.00;85.10
16513;DHT22;8369;48.030;11.598;2022-09-12T16:05:24;21.00;85.70
16513;DHT22;8369;48.030;11.598;2022-09-12T16:07:51;21.00;85.30
16513;DHT22;8369;48.030;11.598;2022-09-12T16:10:23;20.90;84.80
16513;DHT22;8369;48.030;11.598;2022-09-12T16:12:50;20.90;86.00
16513;DHT22;8369;48.030;11.598;2022-09-12T16:15:21;20.90;84.70
16513;DHT22;8369;48.030;11.598;2022-09-12T16:17:48;20.90;85.60
16513;DHT22;8369;48.030;11.598;2022-09-12T16:20:15;20.80;85.70
16513;DHT22;8369;48.030;11.598;2022-09-12T16:22:41;20.70;84.70
16513;DHT22;8369;48.030;11.598;2022-09-12T16:25:15;20.70;85.10
16513;DHT22;8369;48.030;11.598;2022-09-12T16:27:41;20.60;84.70
16513;DHT22;8369;48.030;11.598;2022-09-12T16:30:08;20.60;84.80
16513;DHT22;8369;48.030;11.598;2022-09-12T16:32:34;20.60;84.70
16513;DHT22;8369;48.030;11.598;2022-09-12T16:35:03;20.40;84.80
16513;DHT22;8369;48.030;11.598;2022-09-12T16:37:30;20.40;85.40
16513;DHT22;8369;48.030;11.598;2022-09-12T16:40:02;20.30;86.20
16513;DHT22;8369;48.030;11.598;2022-09-12T16:42:29;20.30;87.40
16513;DHT22;8369;48.030;11.598;2022-09-12T16:44:55;20.20;88.80
16513;DHT22;8369;48.030;11.598;2022-09-12T16:47:21;20.10;88.30
16513;DHT22;8369;48.030;11.598;2022-09-12T16:49:50;20.10;88.20
16513;DHT22;8369;48.030;11.598;2022-09-12T16:52:16;20.00;89.50
16513;DHT22;8369;48.030;11.598;2022-09-12T16:54:43;20.00;90.10
16513;DHT22;8369;48.030;11.598;2022-09-12T16:57:10;19.90;90.80
16513;DHT22;8369;48.030;11.598;2022-09-12T16:59:36;19.80;91.40
16513;DHT22;8369;48.030;11.598;2022-09-12T17:02:02;19.80;91.50
16513;DHT22;8369;48.030;11.598;2022-09-12T17:04:28;19.70;91.50
16513;DHT22;8369;48.030;11.598;2022-09-12T17:06:57;19.70;92.00
16513;DHT22;8369;48.030;11.598;2022-09-12T17:09:24;19.60;92.80
16513;DHT22;8369;48.030;11.598;2022-09-12T17:11:51;19.50;93.40
16513;DHT22;8369;48.030;11.598;2022-09-12T17:14:17;19.50;93.80
16513;DHT22;8369;48.030;11.598;2022-09-12T17:16:44;19.40;94.00
16513;DHT22;8369;48.030;11.598;2022-09-12T17:19:22;19.40;94.70
16513;DHT22;8369;48.030;11.598;2022-09-12T17:21:51;19.30;96.10
16513;DHT22;8369;48.030;11.598;2022-09-12T17:24:18;19.20;97.20
16513;DHT22;8369;48.030;11.598;2022-09-12T17:26:44;19.10;97.00
16513;DHT22;8369;48.030;11.598;2022-09-12T17:29:11;19.00;97.30
16513;DHT22;8369;48.030;11.598;2022-09-12T17:31:40;19.00;98.20
16513;DHT22;8369;48.030;11.598;2022-09-12T17:34:07;18.90;98.30
16513;DHT22;8369;48.030;11.598;2022-09-12T17:36:33;18.80;98.70
16513;DHT22;8369;48.030;11.598;2022-09-12T17:39:00;18.70;98.80
16513;DHT22;8369;48.030;11.598;2022-09-12T17:41:30;18.60;99.20
16513;DHT22;8369;48.030;11.598;2022-09-12T17:43:58;18.50;99.50
16513;DHT22;8369;48.030;11.598;2022-09-12T17:46:35;18.40;99.80
16513;DHT22;8369;48.030;11.598;2022-09-12T17:49:04;18.30;99.90
16513;DHT22;8369;48.030;11.598;2022-09-12T17:51:34;18.20;99.90
16513;DHT22;8369;48.030;11.598;2022-09-12T17:54:07;18.10;99.90
16513;DHT22;8369;48.030;11.598;2022-09-12T17:56:36;18.00;99.90
16513;DHT22;8369;48.030;11.598;2022-09-12T17:59:03;17.90;99.90
16513;DHT22;8369;48.030;11.598;2022-09-12T18:01:30;17.90;99.90
16513;DHT22;8369;48.030;11.598;2022-09-12T18:04:15;17.80;99.90
16513;DHT22;8369;48.030;11.598;2022-09-12T18:06:41;17.70;99.90
16513;DHT22;8369;48.030;11.598;2022-09-12T18:09:24;17.60;99.90
16513;DHT22;8369;48.030;11.598;2022-09-12T18:11:51;17.60;99.90
16513;DHT22;8369;48.030;11.598;2022-09-12T18:14:17;17.50;99.90
16513;DHT22;8369;48.030;11.598;2022-09-12T18:16:44;17.40;99.90
16513;DHT22;8369;48.030;11.598;2022-09-12T18:19:11;17.30;99.90
16513;DHT22;8369;48.030;11.598;2022-09-12T18:21:37;17.20;99.90
16513;DHT22;8369;48.030;11.598;2022-09-12T18:24:06;17.20;99.90